Lipetsk, Russia
Current Conditions -  °F | °C
As of 3:00 PM on Sunday 23 Nov 2014 (Local Time) from UUOO Reporting Station
Clear Clear  
Wind Chill: 24°   Ceiling: Unl
Heat Index: 30°   Visibility: 6mi
Dew Point: 28°   Wind: 7mph
Humidity: 93%   Direction: 320°NW
Pressure: 30.42"   Gusts: NA
Location:  52.62°N, 39.62°E
Report Text: UUOO 231200Z 32003MPS CAVOK M01/M02 Q1030 NOSIG RMK 30090070
Loading
Personal Weather Stations






























Interactive Weather Map New forecast layout! Learn more

10-Day Weather Forecast

Advertisements
Track Severe Weather on mobile